Main page
METAR-TAF:

METAR-TAF

Airports :

Riyadh Air Base

Riyadh, Saudi Arabia

latitude: 24-43N, longitude: 046-44E, elevation: 635 m

Current weather observation

The report was made 1 hour and 3 minutes ago, at 08:00 UTC
Wind 9 kt from the Northeast
Temperature 27°C
Humidity 17%
Pressure 1018 hPa
Visibility: 9000 m

METAR: OERY 150800Z 04009KT 9000 NSC 27/00 Q1018

Time: 12:03 (09:03 UTC)

Forecast

The report was made 10 hours and 3 minutes ago, at 23:00 UTC
Forecast valid from 15 at 00 UTC to 16 at 06 UTC
Wind 14 kt from the Northeast
Visibility: 7000 m
Scattered clouds at a height of 4000 ft
Scattered clouds at a height of 10000 ft
Temporary
from 15 at 00 UTC to 15 at 12 UTC
Wind 20 kt from variable directions
Visibility: 3000 m
Few clouds at a height of 3500 ft, Cumulonimbus.
Broken clouds at a height of 4000 ft
Blowing dust, thunderstorm, rain

TAF: OERY 142300Z 1500/1606 04014KT 7000 SCT040 SCT100 TEMPO 1500/1512 VRB20KT 3000 BLDU TSRA FEW035CB BKN040

Weather observations and forecasts of more than 4000 airports (METAR and TAF reports).

The available stations are represented by yellow and red dots on the map.

Hover mouse over dot to see the name of the station.

Then click to see weather observations and forecasts.

To change the map : click on the green buttons with a black cross to zoom in, on the green button with a dash to zoom out, or on the green arrows for adjacent maps.


METAR-TAF: